X  CloseMetar Aviation Weather Data     EBBR Brussels

Temperature

8°C Temperature

4°C Dewpoint

76% Humidity



Wind

16 KM/H

10 MPH

 4 M/S

 9 KTS



110°
East South
East
Current Conditions

Clear Clear
Pressure 999.92 (hPa) - 29.53 (in)
Visibility 6.2 (mi) - 10 (km)
Airport
Airport-code EBBR

Location Brussels 14 (km)

Metar:
EBBR 221820Z 11009KT CAVOK 08/04 Q1000 NOSIG

Time: 22-11-2019 19:20